createdAt,value
2023-02-19T00:00:19.269Z,1014.654453
2023-02-19T00:05:19.211Z,1014.660004
2023-02-19T00:10:19.196Z,1014.597858
2023-02-19T00:15:19.154Z,1014.526053
2023-02-19T00:20:19.739Z,1014.486297
2023-02-19T00:25:19.439Z,1014.393305
2023-02-19T00:30:19.224Z,1014.347588
2023-02-19T00:35:19.180Z,1014.288910
2023-02-19T00:40:19.361Z,1014.216244
2023-02-19T00:45:19.121Z,1014.159830
2023-02-19T00:50:19.241Z,1014.054498
2023-02-19T00:55:19.205Z,1013.984084
2023-02-19T01:00:19.240Z,1013.800852
2023-02-19T01:05:19.273Z,1013.772325
2023-02-19T01:10:19.106Z,1013.778199
2023-02-19T01:15:19.292Z,1013.707078
2023-02-19T01:20:19.707Z,1013.627319
2023-02-19T01:25:19.505Z,1013.530854
2023-02-19T01:30:19.244Z,1013.455540
2023-02-19T01:35:19.383Z,1013.402240
2023-02-19T01:40:19.083Z,1013.424198
2023-02-19T01:45:19.172Z,1013.404090
2023-02-19T01:50:19.139Z,1013.364563
2023-02-19T01:55:19.345Z,1013.311205
2023-02-19T02:00:19.242Z,1013.261130
2023-02-19T02:05:19.153Z,1013.191233
2023-02-19T02:10:19.446Z,1013.139198
2023-02-19T02:15:19.385Z,1013.085147
2023-02-19T02:20:19.898Z,1012.980731
2023-02-19T02:25:19.141Z,1012.915156
2023-02-19T02:30:19.456Z,1012.777779
2023-02-19T02:35:19.091Z,1012.646398
2023-02-19T02:40:19.225Z,1012.556332
2023-02-19T02:45:19.088Z,1012.440223
2023-02-19T02:50:19.167Z,1012.390327
2023-02-19T02:55:19.189Z,1012.305449
2023-02-19T03:00:19.129Z,1012.252610
2023-02-19T03:05:19.110Z,1012.171360
2023-02-19T03:10:19.128Z,1012.145429
2023-02-19T03:15:19.121Z,1012.057550
2023-02-19T03:20:19.795Z,1012.012261
2023-02-19T03:25:19.141Z,1011.952046
2023-02-19T03:30:19.172Z,1011.839441
2023-02-19T03:35:19.410Z,1011.785674
2023-02-19T03:40:19.460Z,1011.715658
2023-02-19T03:45:19.119Z,1011.651578
2023-02-19T03:50:19.144Z,1011.489133
2023-02-19T03:55:19.109Z,1011.533541
2023-02-19T04:00:19.111Z,1011.497146
2023-02-19T04:05:19.134Z,1011.438946
2023-02-19T04:10:19.116Z,1011.479512
2023-02-19T04:15:19.160Z,1011.433178
2023-02-19T04:20:20.099Z,1011.370539
2023-02-19T04:25:19.509Z,1011.419521
2023-02-19T04:30:19.312Z,1011.415947
2023-02-19T04:35:19.144Z,1011.428048
2023-02-19T04:40:19.257Z,1011.430583
2023-02-19T04:45:19.529Z,1011.438535
2023-02-19T04:50:19.618Z,1011.386154
2023-02-19T04:55:19.049Z,1011.358263
2023-02-19T05:00:19.569Z,1011.294646
2023-02-19T05:05:18.989Z,1011.252925
2023-02-19T05:10:19.462Z,1011.446257
2023-02-19T05:15:19.011Z,1011.710700
2023-02-19T05:20:19.352Z,1011.714848
2023-02-19T05:25:19.241Z,1011.744466
2023-02-19T05:30:19.079Z,1011.853317
2023-02-19T05:35:19.160Z,1011.835394
2023-02-19T05:40:19.066Z,1011.860633
2023-02-19T05:45:19.343Z,1011.829921
2023-02-19T05:50:19.056Z,1011.825313
2023-02-19T05:55:19.148Z,1011.907948
2023-02-19T06:00:19.142Z,1011.942406
2023-02-19T06:05:19.086Z,1011.976864
2023-02-19T06:10:19.219Z,1011.981818
2023-02-19T06:15:19.040Z,1011.977034
2023-02-19T06:20:19.470Z,1012.037134
2023-02-19T06:25:18.993Z,1012.076837
2023-02-19T06:30:19.077Z,1012.137112
2023-02-19T06:35:19.052Z,1012.150712
2023-02-19T06:40:19.203Z,1012.096086
2023-02-19T06:45:19.198Z,1012.107500
2023-02-19T06:50:19.124Z,1012.187083
2023-02-19T06:55:19.277Z,1012.251511
2023-02-19T07:00:18.970Z,1012.309487
2023-02-19T07:05:19.060Z,1012.381981
2023-02-19T07:10:19.139Z,1012.461790
2023-02-19T07:15:19.039Z,1012.524769
2023-02-19T07:20:20.112Z,1012.542401
2023-02-19T07:25:19.308Z,1012.872981
2023-02-19T07:30:19.447Z,1013.400418
2023-02-19T07:35:19.060Z,1013.750859
2023-02-19T07:40:19.010Z,1013.947453
2023-02-19T07:45:19.289Z,1014.109267
2023-02-19T07:50:19.057Z,1014.216374
2023-02-19T07:55:19.034Z,1014.378281
2023-02-19T08:00:19.133Z,1014.465893
2023-02-19T08:05:19.026Z,1014.585267
2023-02-19T08:10:19.436Z,1014.750570
2023-02-19T08:15:21.517Z,1014.807451
2023-02-19T08:20:19.348Z,1014.927466
2023-02-19T08:25:19.046Z,1015.227449
2023-02-19T08:30:19.093Z,1015.499884
2023-02-19T08:35:16.442Z,1015.571892
2023-02-19T08:40:16.520Z,1015.656179
2023-02-19T08:45:16.589Z,1015.793652
2023-02-19T08:50:16.705Z,1015.957610
2023-02-19T08:55:16.476Z,1016.149721
2023-02-19T09:00:16.585Z,1016.294185
2023-02-19T09:05:16.533Z,1016.384995
2023-02-19T09:10:16.423Z,1016.632100
2023-02-19T09:15:16.566Z,1016.842435
2023-02-19T09:20:16.794Z,1017.062893
2023-02-19T09:25:16.669Z,1017.223210
2023-02-19T09:30:16.540Z,1017.300288
2023-02-19T09:35:16.711Z,1017.496821
2023-02-19T09:40:16.982Z,1017.580763
2023-02-19T09:45:16.458Z,1017.638966
2023-02-19T09:50:16.752Z,1017.644576
2023-02-19T09:55:17.362Z,1017.731485
2023-02-19T10:00:16.776Z,1017.832696
2023-02-19T10:05:16.640Z,1017.970544
2023-02-19T10:10:16.478Z,1018.127657
2023-02-19T10:15:16.690Z,1018.162243
2023-02-19T10:20:17.110Z,1018.207354
2023-02-19T10:25:16.483Z,1018.314894
2023-02-19T10:30:16.510Z,1018.467841
2023-02-19T10:35:16.566Z,1018.471012
2023-02-19T10:40:16.472Z,1018.637857
2023-02-19T10:45:16.848Z,1018.694148
2023-02-19T10:50:16.454Z,1018.804595
2023-02-19T10:55:16.395Z,1018.812691
2023-02-19T11:00:16.477Z,1018.852366
2023-02-19T11:05:16.674Z,1018.985959
2023-02-19T11:10:16.447Z,1019.182763
2023-02-19T11:15:16.844Z,1019.165181
2023-02-19T11:20:17.003Z,1019.143415
2023-02-19T11:25:16.640Z,1019.333757
2023-02-19T11:30:16.460Z,1019.449637
2023-02-19T11:35:16.528Z,1019.414018
2023-02-19T11:40:16.489Z,1019.424445
2023-02-19T11:45:16.462Z,1019.483589
2023-02-19T11:50:16.573Z,1019.463679
2023-02-19T11:55:16.518Z,1019.494526
2023-02-19T12:00:16.439Z,1019.574499
2023-02-19T12:05:16.732Z,1019.662828
2023-02-19T12:10:16.909Z,1019.695655
2023-02-19T12:15:16.844Z,1019.697096
2023-02-19T12:20:17.606Z,1019.756725
2023-02-19T12:25:16.727Z,1019.685632
2023-02-19T12:30:16.438Z,1019.732053
2023-02-19T12:35:16.447Z,1019.778277
2023-02-19T12:40:16.763Z,1019.825729
2023-02-19T12:45:16.676Z,1019.944679
2023-02-19T12:50:16.598Z,1020.000359
2023-02-19T12:55:16.433Z,1020.112910
2023-02-19T13:00:16.396Z,1020.158789
2023-02-19T13:05:16.452Z,1020.231512
2023-02-19T13:10:16.669Z,1020.287471
2023-02-19T13:15:16.470Z,1020.316155
2023-02-19T13:20:17.069Z,1020.302852
2023-02-19T13:25:16.404Z,1020.340336
2023-02-19T13:30:16.533Z,1020.460576
2023-02-19T13:35:16.621Z,1020.600941
2023-02-19T13:40:16.422Z,1020.582835
2023-02-19T13:45:16.661Z,1020.406010
2023-02-19T13:50:16.434Z,1020.365123
2023-02-19T13:55:16.436Z,1020.399944
2023-02-19T14:00:16.408Z,1020.365113
2023-02-19T14:05:16.563Z,1020.487302
2023-02-19T14:10:16.374Z,1020.545675
2023-02-19T14:15:16.408Z,1020.597167
2023-02-19T14:20:16.680Z,1020.620138
2023-02-19T14:25:16.290Z,1020.652191
2023-02-19T14:30:16.816Z,1020.770845
2023-02-19T14:35:16.659Z,1020.729738
2023-02-19T14:40:16.396Z,1020.718965
2023-02-19T14:45:16.378Z,1020.816643
2023-02-19T14:50:17.033Z,1020.866686
2023-02-19T14:55:16.650Z,1020.924907
2023-02-19T15:00:17.153Z,1021.038612
2023-02-19T15:05:16.430Z,1021.000605
2023-02-19T15:10:16.302Z,1020.948226
2023-02-19T15:15:17.055Z,1020.989301
2023-02-19T15:20:16.766Z,1020.955877
2023-02-19T15:25:16.378Z,1021.028359
2023-02-19T15:30:16.523Z,1021.063140
2023-02-19T15:35:16.501Z,1021.175621
2023-02-19T15:40:16.389Z,1021.153020
2023-02-19T15:45:16.457Z,1021.160541
2023-02-19T15:50:16.455Z,1021.061579
2023-02-19T15:55:16.732Z,1021.133161
2023-02-19T16:00:16.461Z,1021.203698
2023-02-19T16:05:16.437Z,1021.202371
2023-02-19T16:10:16.455Z,1021.175794
2023-02-19T16:15:16.326Z,1021.193250
2023-02-19T16:20:16.776Z,1021.337965
2023-02-19T16:25:16.377Z,1021.386376
2023-02-19T16:30:16.406Z,1021.481062
2023-02-19T16:35:16.316Z,1021.586902
2023-02-19T16:40:16.861Z,1021.632072
2023-02-19T16:45:16.647Z,1021.669354
2023-02-19T16:50:16.407Z,1021.816352
2023-02-19T16:55:16.438Z,1021.955779
2023-02-19T17:00:16.374Z,1022.142583
2023-02-19T17:05:16.428Z,1022.262046
2023-02-19T17:10:16.371Z,1022.447476
2023-02-19T17:15:16.359Z,1022.575302
2023-02-19T17:20:16.793Z,1022.704591
2023-02-19T17:25:16.687Z,1022.749343
2023-02-19T17:30:17.103Z,1022.788996
2023-02-19T17:35:16.901Z,1022.843853
2023-02-19T17:40:23.952Z,1022.869601
2023-02-19T17:45:16.704Z,1022.964109
2023-02-19T17:50:16.590Z,1022.963544
2023-02-19T17:55:17.053Z,1022.920521
2023-02-19T18:00:16.522Z,1023.050050
2023-02-19T18:05:16.346Z,1023.037218
2023-02-19T18:10:16.302Z,1023.066473
2023-02-19T18:15:16.313Z,1023.142213
2023-02-19T18:20:16.674Z,1023.166763
2023-02-19T18:25:16.406Z,1023.226536
2023-02-19T18:30:16.339Z,1023.291941
2023-02-19T18:35:16.347Z,1023.329358
2023-02-19T18:40:16.334Z,1023.428851
2023-02-19T18:45:16.356Z,1023.478771
2023-02-19T18:50:16.398Z,1023.466825
2023-02-19T18:55:16.333Z,1023.427092
2023-02-19T19:00:16.332Z,1023.489021
2023-02-19T19:05:16.364Z,1023.593293
2023-02-19T19:10:16.349Z,1023.642185
2023-02-19T19:15:18.341Z,1023.610605
2023-02-19T19:20:16.923Z,1023.737434
2023-02-19T19:25:16.323Z,1023.709668
2023-02-19T19:30:16.241Z,1023.762590
2023-02-19T19:35:16.303Z,1023.794964
2023-02-19T19:40:16.276Z,1023.866778
2023-02-19T19:45:16.347Z,1023.795335
2023-02-19T19:50:16.462Z,1023.669868
2023-02-19T19:55:16.308Z,1023.679310
2023-02-19T20:00:16.556Z,1023.710056
2023-02-19T20:05:16.437Z,1023.734395
2023-02-19T20:10:16.370Z,1023.728612
2023-02-19T20:15:16.623Z,1023.666224
2023-02-19T20:20:17.109Z,1023.604196
2023-02-19T20:25:16.397Z,1023.567230
2023-02-19T20:30:16.749Z,1023.584659
2023-02-19T20:35:16.792Z,1023.606917
2023-02-19T20:40:16.326Z,1023.665755
2023-02-19T20:45:16.250Z,1023.730236
2023-02-19T20:50:16.285Z,1023.784541
2023-02-19T20:55:16.423Z,1023.772122
2023-02-19T21:00:16.383Z,1023.757770
2023-02-19T21:05:16.272Z,1023.787954
2023-02-19T21:10:16.526Z,1023.848132
2023-02-19T21:15:16.285Z,1023.962934
2023-02-19T21:20:16.529Z,1024.013990
2023-02-19T21:25:19.125Z,1024.018164
2023-02-19T21:30:18.900Z,1023.977389
2023-02-19T21:35:18.698Z,1024.023730
2023-02-19T21:40:18.751Z,1024.003345
2023-02-19T21:45:18.760Z,1024.063121
2023-02-19T21:50:18.672Z,1024.049722
2023-02-19T21:55:18.701Z,1024.004390
2023-02-19T22:00:18.908Z,1023.897610
2023-02-19T22:05:18.762Z,1023.864561
2023-02-19T22:10:19.402Z,1024.020837
2023-02-19T22:15:18.674Z,1024.004425
2023-02-19T22:20:19.066Z,1023.979121
2023-02-19T22:25:18.742Z,1023.845828
2023-02-19T22:30:18.917Z,1023.719871
2023-02-19T22:35:18.714Z,1023.605299
2023-02-19T22:40:19.361Z,1023.580658
2023-02-19T22:45:18.659Z,1023.672666
2023-02-19T22:50:19.150Z,1023.663991
2023-02-19T22:55:19.093Z,1023.590090
2023-02-19T23:00:19.673Z,1023.510505
2023-02-19T23:05:18.943Z,1023.357420
2023-02-19T23:10:20.420Z,1023.326647
2023-02-19T23:15:18.829Z,1023.248018
2023-02-19T23:20:19.907Z,1023.157476
2023-02-19T23:25:19.035Z,1023.038711
2023-02-19T23:30:18.874Z,1023.056523
2023-02-19T23:35:18.995Z,1023.027375
2023-02-19T23:40:19.320Z,1023.078641
2023-02-19T23:45:18.956Z,1023.072049
2023-02-19T23:50:19.585Z,1023.014401
2023-02-19T23:55:19.093Z,1022.940786
